Hamburg Airport EDDH

Flugplatz Daten

Name: Hamburg Airport

Ident: EDDH

Lat: 53,63040161

Long: 9,988229752

Platzhöhe: 53 ft

IataCode: HAM

City: Hamburg

Metar

2022/08/14 06:50
EDDH 140650Z AUTO 11006KT 080V140 CAVOK 23/16 Q1013 NOSIG

Taf

2022/08/14 06:27
TAF EDDH 140500Z 1406/1512 07006KT CAVOK
TEMPO 1410/1417 13010KT PROB30
TEMPO 1415/1417 14015G25KT TSRA SCT050CB
BECMG 1506/1508 13008KT

Webcams

Apron
Gewünschte Webcam nicht vorhanden? Dann fügen Sie eine hinzu. Sie wird dann so schnell wie möglich freigeschaltet
Url: Title: